Time;durP1;ratioP1;P1;durP2;ratioP2;P2;SDS_P1;SDS_P2;PMS_P1;PMS_P2;Temp;Humidity;BMP_temperature;BMP_pressure;BME280_temperature;BME280_humidity;BME280_pressure;Samples;Min_cycle;Max_cycle;Signal;HPM_P1;HPM_P2
2022/01/22 00:00:10;;;;;;;15.47;10.83;;;;;;;3.34;71.84;98035.94;5062476;28;20213;-70
2022/01/22 00:02:36;;;;;;;25.43;12.10;;;;;;;3.26;71.97;98038.16;5070409;28;20183;-72
2022/01/22 00:05:03;;;;;;;18.03;11.13;;;;;;;3.52;70.91;98034.94;5086699;28;20427;-69
2022/01/22 00:07:29;;;;;;;20.70;13.10;;;;;;;3.63;70.69;98030.88;5084458;28;20236;-70
2022/01/22 00:10:00;;;;;;;20.90;11.80;;;;;;;3.13;72.48;98028.47;5060001;28;20464;-69
2022/01/22 00:13:06;;;;;;;19.90;11.20;;;;;;;3.45;71.54;98023.22;5061091;28;20653;-70
2022/01/22 00:15:13;;;;;;;17.40;10.57;;;;;;;3.50;70.96;98026.41;5064662;28;20431;-72
2022/01/22 00:17:40;;;;;;;25.30;11.67;;;;;;;3.45;71.81;98023.22;5072321;28;20433;-73
2022/01/22 00:20:07;;;;;;;21.30;11.43;;;;;;;3.86;70.12;98020.91;5063579;28;20438;-70
2022/01/22 00:22:35;;;;;;;21.30;10.47;;;;;;;3.47;71.00;98021.38;5070609;28;20428;-71
2022/01/22 00:25:02;;;;;;;33.33;11.50;;;;;;;3.18;71.92;98031.63;5070465;28;20424;-70
2022/01/22 00:27:28;;;;;;;29.90;11.30;;;;;;;3.57;70.59;98032.06;5071636;28;20451;-70
2022/01/22 00:29:55;;;;;;;23.03;10.70;;;;;;;3.45;71.86;98028.41;5053411;28;20461;-70
2022/01/22 00:32:21;;;;;;;18.70;11.00;;;;;;;3.43;71.49;98030.25;5067809;28;20563;-70
2022/01/22 00:34:47;;;;;;;14.50;8.63;;;;;;;3.51;71.48;98022.88;5065233;28;20436;-69
2022/01/22 00:37:13;;;;;;;19.33;10.37;;;;;;;3.46;71.52;98030.06;5065093;28;20418;-70
2022/01/22 00:39:39;;;;;;;14.33;9.50;;;;;;;3.54;71.19;98025.28;5044794;28;20431;-71
2022/01/22 00:42:12;;;;;;;17.10;10.60;;;;;;;3.52;71.04;98021.13;5063086;28;20421;-70
2022/01/22 00:44:38;;;;;;;15.83;8.63;;;;;;;3.67;70.85;98020.25;5069420;28;20192;-67
2022/01/22 00:47:04;;;;;;;14.33;9.43;;;;;;;3.48;71.38;98027.38;5068526;28;20420;-68
2022/01/22 00:49:30;;;;;;;18.20;9.00;;;;;;;3.53;71.22;98017.59;5061549;28;20983;-71
2022/01/22 00:51:57;;;;;;;15.50;9.30;;;;;;;3.69;71.30;98014.94;5071477;28;20597;-71
2022/01/22 00:54:23;;;;;;;13.40;9.20;;;;;;;3.52;71.30;98024.56;5071153;28;20421;-70
2022/01/22 00:56:49;;;;;;;15.77;9.30;;;;;;;3.76;70.69;98024.06;5070201;28;20460;-73
2022/01/22 00:59:15;;;;;;;13.70;8.70;;;;;;;3.43;71.59;98026.81;5070984;28;20187;-72
2022/01/22 01:01:41;;;;;;;12.80;9.57;;;;;;;3.21;72.45;98031.47;5066062;28;20452;-71
2022/01/22 01:04:09;;;;;;;18.27;9.10;;;;;;;3.68;71.72;98024.50;5068752;28;20235;-71
2022/01/22 01:06:34;;;;;;;17.43;8.00;;;;;;;3.90;70.33;98018.06;5071284;28;20969;-70
2022/01/22 01:09:02;;;;;;;17.60;9.90;;;;;;;3.63;71.39;98015.31;5065189;28;20429;-71
2022/01/22 01:11:29;;;;;;;12.50;9.10;;;;;;;3.67;70.61;98015.06;5071079;28;20221;-69
2022/01/22 01:13:59;;;;;;;14.63;8.60;;;;;;;3.78;70.63;98011.81;5071036;28;20514;-71
2022/01/22 01:35:31;;;;;;;17.33;9.47;;;;;;;3.84;71.30;98034.00;5069709;28;20907;-71
2022/01/22 01:37:59;;;;;;;16.47;8.67;;;;;;;3.66;71.99;98026.34;5064133;28;20474;-71
2022/01/22 01:40:26;;;;;;;18.27;9.27;;;;;;;3.99;71.04;98027.06;5069316;28;20462;-69
2022/01/22 01:43:07;;;;;;;25.23;10.10;;;;;;;3.71;71.58;98031.25;5070988;28;20435;-70
2022/01/22 01:45:33;;;;;;;15.80;10.13;;;;;;;3.85;71.09;98030.44;5055914;28;20469;-70
2022/01/22 01:48:03;;;;;;;16.57;8.80;;;;;;;3.64;71.33;98033.38;5049179;28;20440;-69
2022/01/22 01:50:31;;;;;;;15.40;10.37;;;;;;;3.84;71.33;98040.00;5054184;28;20296;-70
2022/01/22 01:53:20;;;;;;;17.07;9.10;;;;;;;3.72;71.43;98045.91;5076353;28;20432;-73
2022/01/22 01:58:12;;;;;;;15.60;10.10;;;;;;;4.24;69.65;98041.16;5074456;28;20416;-72
2022/01/22 02:00:37;;;;;;;17.20;9.47;;;;;;;4.44;69.27;98043.38;5072524;28;20447;-71
2022/01/22 02:03:03;;;;;;;12.30;8.63;;;;;;;4.23;69.55;98039.50;5059856;28;20191;-71
2022/01/22 02:05:31;;;;;;;14.97;9.20;;;;;;;4.04;70.27;98043.16;5074693;28;20546;-70
2022/01/22 02:07:56;;;;;;;13.80;9.23;;;;;;;4.02;70.33;98041.59;5069352;28;20191;-69
2022/01/22 02:10:26;;;;;;;13.10;9.40;;;;;;;4.38;69.26;98037.72;5082317;28;20464;-71
2022/01/22 02:23:39;;;;;;;14.70;9.17;;;;;;;4.53;69.15;98041.16;5068503;28;20515;-70
2022/01/22 02:26:06;;;;;;;16.67;10.17;;;;;;;4.64;68.82;98035.31;5077779;28;20436;-72
2022/01/22 02:28:32;;;;;;;13.30;9.00;;;;;;;4.54;68.77;98037.63;5074413;28;20429;-69
2022/01/22 02:31:08;;;;;;;14.63;9.77;;;;;;;3.92;70.07;98036.09;5073388;28;20498;-70
2022/01/22 02:36:27;;;;;;;17.50;9.60;;;;;;;4.41;69.23;98022.78;5073509;28;20435;-70
2022/01/22 02:39:07;;;;;;;14.10;9.33;;;;;;;4.56;69.27;98017.59;5068612;28;20425;-72
2022/01/22 02:41:35;;;;;;;14.93;9.67;;;;;;;4.47;68.64;98026.81;5060188;28;20799;-71
2022/01/22 02:44:01;;;;;;;16.80;9.80;;;;;;;4.42;69.31;98029.66;5072272;28;20486;-69
2022/01/22 02:46:28;;;;;;;16.20;10.37;;;;;;;4.18;70.38;98020.75;5052118;28;20432;-69
2022/01/22 02:48:55;;;;;;;15.50;9.20;;;;;;;4.04;70.10;98019.81;5073466;28;20436;-70
2022/01/22 02:51:22;;;;;;;17.73;10.40;;;;;;;4.32;70.49;98010.38;5056638;28;20548;-71
2022/01/22 02:53:54;;;;;;;14.83;9.60;;;;;;;4.05;70.17;98021.50;5055087;28;20429;-70
2022/01/22 02:56:21;;;;;;;16.90;9.87;;;;;;;4.36;69.50;98014.47;5064871;28;21004;-71
2022/01/22 02:58:46;;;;;;;18.37;10.23;;;;;;;4.24;70.34;98025.59;5074095;28;20464;-67
2022/01/22 03:01:15;;;;;;;18.43;9.77;;;;;;;3.95;71.03;98030.75;5070681;28;20436;-71
2022/01/22 03:03:41;;;;;;;13.03;9.10;;;;;;;4.19;70.32;98022.44;5061663;28;20281;-69
2022/01/22 03:06:07;;;;;;;16.53;10.57;;;;;;;4.37;69.55;98016.13;5073177;28;20417;-69
2022/01/22 03:08:33;;;;;;;15.93;10.20;;;;;;;3.96;70.35;98016.84;5066863;28;20191;-71
2022/01/22 03:11:01;;;;;;;18.90;11.50;;;;;;;3.90;71.26;98012.88;5071393;28;20220;-70
2022/01/22 03:19:11;;;;;;;13.13;10.20;;;;;;;4.04;70.95;98011.22;5067343;28;20506;-70
2022/01/22 03:21:44;;;;;;;22.57;13.17;;;;;;;4.34;70.49;98020.69;5058673;28;20459;-69
2022/01/22 03:27:21;;;;;;;18.30;12.33;;;;;;;3.80;71.14;98022.94;5063267;28;20431;-70
2022/01/22 03:29:46;;;;;;;20.43;11.00;;;;;;;3.89;71.33;98018.16;5071323;28;20514;-69
2022/01/22 03:32:13;;;;;;;17.40;10.13;;;;;;;3.88;71.19;98004.34;5072908;28;20468;-71
2022/01/22 03:34:53;;;;;;;18.40;10.37;;;;;;;4.02;70.49;98010.47;5072684;28;20359;-71
2022/01/22 03:37:19;;;;;;;20.33;11.50;;;;;;;4.15;70.65;98014.84;5067350;28;20460;-71
2022/01/22 03:39:46;;;;;;;14.70;10.90;;;;;;;4.00;71.02;98002.78;5071198;28;20480;-72
2022/01/22 03:42:11;;;;;;;18.17;11.53;;;;;;;4.37;70.36;98010.94;5071071;28;20264;-70
2022/01/22 03:44:37;;;;;;;21.50;10.83;;;;;;;4.39;69.29;98011.69;5054274;28;20527;-70
2022/01/22 03:47:04;;;;;;;14.87;10.20;;;;;;;4.16;70.18;98013.06;5069420;28;20182;-70
2022/01/22 03:49:30;;;;;;;20.10;11.17;;;;;;;4.37;69.10;98010.94;5071975;28;20677;-69
2022/01/22 03:51:56;;;;;;;17.67;10.90;;;;;;;4.42;69.50;98003.69;5070997;28;20433;-69
2022/01/22 03:54:21;;;;;;;19.73;10.73;;;;;;;4.18;69.33;97995.66;5051222;28;20425;-70
2022/01/22 03:56:48;;;;;;;15.80;10.87;;;;;;;3.94;70.75;98001.41;5067105;28;20201;-68
2022/01/22 03:59:14;;;;;;;18.97;10.90;;;;;;;3.92;70.65;97999.78;5071910;28;20545;-70
2022/01/22 04:02:48;;;;;;;18.13;11.70;;;;;;;4.17;69.88;98003.50;5068021;28;20852;-71
2022/01/22 04:04:34;;;;;;;20.77;11.23;;;;;;;3.87;71.04;97999.25;5047682;28;20586;-69
2022/01/22 04:09:28;;;;;;;17.93;11.70;;;;;;;3.80;71.34;97999.59;5070494;28;20432;-69
2022/01/22 04:11:57;;;;;;;18.60;10.60;;;;;;;3.66;71.98;97994.38;5070446;28;20552;-71
2022/01/22 04:14:27;;;;;;;17.70;11.70;;;;;;;3.76;72.09;97995.53;5062386;28;20428;-72
2022/01/22 04:24:55;;;;;;;16.33;11.80;;;;;;;4.00;70.72;97989.81;5071941;28;20432;-71
2022/01/22 04:27:24;;;;;;;19.57;11.20;;;;;;;4.41;69.52;97991.63;5071341;28;20421;-70
2022/01/22 04:29:58;;;;;;;18.27;12.40;;;;;;;4.52;68.93;97996.19;5070464;28;20543;-70
2022/01/22 04:32:27;;;;;;;19.77;12.40;;;;;;;4.40;69.36;98000.38;5071548;28;20435;-70
2022/01/22 04:34:53;;;;;;;19.37;12.13;;;;;;;4.09;69.79;98010.00;5053898;28;20526;-73
2022/01/22 04:37:20;;;;;;;20.23;11.93;;;;;;;4.21;69.88;97999.81;5069291;28;20931;-72
2022/01/22 04:39:47;;;;;;;25.20;12.23;;;;;;;3.84;71.40;97998.50;5054033;28;20445;-71
2022/01/22 04:42:13;;;;;;;18.60;11.30;;;;;;;4.05;70.60;97998.13;5062583;28;20488;-71
2022/01/22 04:44:49;;;;;;;17.23;11.40;;;;;;;4.06;70.71;97994.63;5083100;28;20443;-71
2022/01/22 04:47:27;;;;;;;20.47;11.83;;;;;;;4.10;70.02;97993.53;5066068;28;20425;-71
2022/01/22 04:52:42;;;;;;;18.70;11.33;;;;;;;4.50;69.12;97984.25;5073988;28;20444;-70
2022/01/22 04:55:09;;;;;;;14.40;10.10;;;;;;;4.46;68.42;97978.41;5064492;28;20919;-70
2022/01/22 04:57:40;;;;;;;19.80;11.43;;;;;;;4.12;69.86;97996.88;5049238;28;20436;-72
2022/01/22 05:00:09;;;;;;;15.90;11.63;;;;;;;4.21;69.71;97990.28;5070627;28;20445;-70
2022/01/22 05:02:35;;;;;;;17.50;10.90;;;;;;;3.98;70.43;97986.47;5064882;28;20425;-71
2022/01/22 05:05:01;;;;;;;17.33;11.80;;;;;;;3.79;71.20;97995.34;5071454;28;20451;-70
2022/01/22 05:07:27;;;;;;;16.50;10.20;;;;;;;4.27;69.80;98000.28;5074131;28;20186;-72
2022/01/22 05:09:52;;;;;;;18.73;10.20;;;;;;;4.19;68.97;98012.03;5072685;28;20545;-71
2022/01/22 05:12:18;;;;;;;17.67;11.20;;;;;;;4.06;69.09;98004.19;5072197;28;20624;-69
2022/01/22 05:14:43;;;;;;;16.97;10.77;;;;;;;4.36;68.07;98006.69;5073850;28;20190;-72
2022/01/22 05:17:09;;;;;;;16.90;10.73;;;;;;;4.63;67.78;98005.91;5073010;28;20649;-71
2022/01/22 05:22:12;;;;;;;15.47;10.57;;;;;;;4.71;67.61;98016.66;5057073;28;20425;-70
2022/01/22 05:24:42;;;;;;;13.70;10.40;;;;;;;4.57;66.98;98021.84;5058721;28;20189;-71
2022/01/22 05:27:31;;;;;;;18.43;11.70;;;;;;;4.44;68.27;98027.81;5062346;28;20437;-71
2022/01/22 05:30:11;;;;;;;18.77;11.10;;;;;;;4.23;68.26;98034.31;5042400;28;20471;-70
2022/01/22 05:37:49;;;;;;;15.83;10.17;;;;;;;4.74;66.93;98041.59;5073519;28;20424;-72
2022/01/22 05:40:14;;;;;;;20.90;10.83;;;;;;;4.29;67.96;98044.28;5073337;28;20440;-72
2022/01/22 05:42:40;;;;;;;20.27;11.70;;;;;;;4.04;68.92;98039.75;5057882;28;20216;-71
2022/01/22 05:45:07;;;;;;;16.97;10.80;;;;;;;4.62;67.54;98040.59;5060935;28;20190;-70
2022/01/22 05:47:32;;;;;;;15.53;11.10;;;;;;;4.50;66.92;98046.53;5074567;28;20201;-69
2022/01/22 05:50:00;;;;;;;14.57;10.50;;;;;;;4.32;67.33;98046.72;5073002;28;20835;-72
2022/01/22 05:52:34;;;;;;;19.33;10.23;;;;;;;4.13;68.57;98045.25;5056977;28;20337;-72
2022/01/22 06:00:12;;;;;;;15.83;10.93;;;;;;;4.71;65.99;98052.19;5058399;28;20443;-69
2022/01/22 06:02:38;;;;;;;18.73;10.63;;;;;;;5.07;65.08;98056.84;5067869;28;20531;-70
2022/01/22 06:05:04;;;;;;;17.70;10.20;;;;;;;4.30;67.40;98056.34;5074037;28;20995;-69
2022/01/22 06:07:30;;;;;;;16.33;10.03;;;;;;;4.70;66.35;98055.72;5074073;28;20183;-70
2022/01/22 06:15:11;;;;;;;19.97;11.00;;;;;;;4.81;65.29;98061.06;5073814;28;20429;-70
2022/01/22 06:17:37;;;;;;;17.57;11.27;;;;;;;4.86;66.24;98058.19;5073681;28;20921;-70
2022/01/22 06:20:04;;;;;;;22.13;12.37;;;;;;;4.93;65.82;98059.47;5073074;28;20622;-69
2022/01/22 06:22:30;;;;;;;19.30;11.73;;;;;;;5.04;65.41;98057.03;5072472;28;20244;-71
2022/01/22 06:24:56;;;;;;;17.30;10.60;;;;;;;4.91;65.88;98061.34;5073819;28;20433;-70
2022/01/22 06:27:22;;;;;;;19.07;11.67;;;;;;;4.71;66.13;98066.00;5063499;28;20179;-70
2022/01/22 06:29:47;;;;;;;16.70;11.17;;;;;;;5.21;64.88;98068.13;5072030;28;20822;-70
2022/01/22 06:32:13;;;;;;;16.77;11.70;;;;;;;4.73;65.94;98063.28;5081272;28;20209;-71
2022/01/22 06:34:38;;;;;;;16.37;11.07;;;;;;;5.16;65.19;98076.22;5074230;28;20561;-71
2022/01/22 06:37:04;;;;;;;17.30;12.07;;;;;;;5.11;65.51;98072.25;5073298;28;20190;-70
2022/01/22 06:39:30;;;;;;;21.03;11.17;;;;;;;4.99;65.13;98079.03;5073149;28;20182;-70
2022/01/22 06:41:55;;;;;;;15.00;10.83;;;;;;;4.83;66.36;98076.56;5055787;28;20193;-71
2022/01/22 06:44:23;;;;;;;16.80;11.80;;;;;;;4.54;67.11;98079.16;5073489;28;20316;-71
2022/01/22 06:46:54;;;;;;;16.30;11.37;;;;;;;4.55;66.62;98079.09;5072650;28;20194;-69
2022/01/22 06:49:20;;;;;;;18.63;11.73;;;;;;;4.79;66.38;98085.47;5058421;28;20448;-71
2022/01/22 06:51:45;;;;;;;17.90;11.77;;;;;;;4.43;66.93;98078.06;5077414;28;20792;-71
2022/01/22 06:54:13;;;;;;;18.37;11.53;;;;;;;4.60;67.11;98084.00;5076987;28;20250;-69
2022/01/22 06:56:39;;;;;;;20.80;11.97;;;;;;;4.53;67.06;98080.13;5058571;28;20233;-71
2022/01/22 06:59:06;;;;;;;24.13;12.80;;;;;;;4.62;66.81;98076.94;5067525;28;20792;-69
2022/01/22 07:01:32;;;;;;;20.37;12.00;;;;;;;4.73;67.17;98078.88;5070590;28;20456;-70
2022/01/22 07:03:58;;;;;;;25.27;12.60;;;;;;;4.72;66.62;98083.25;5070060;28;20425;-70
2022/01/22 07:06:23;;;;;;;23.40;12.90;;;;;;;4.94;66.13;98088.88;5044877;28;20218;-70
2022/01/22 07:08:49;;;;;;;20.27;11.60;;;;;;;4.79;66.57;98083.72;5064284;28;20329;-70
2022/01/22 07:11:15;;;;;;;20.00;12.27;;;;;;;4.64;67.27;98080.28;5072969;28;20218;-71
2022/01/22 07:13:40;;;;;;;20.47;12.40;;;;;;;4.84;66.28;98081.69;5055516;28;20641;-70
2022/01/22 07:16:07;;;;;;;21.53;12.00;;;;;;;4.96;65.95;98080.06;5054099;28;20213;-72
2022/01/22 07:18:33;;;;;;;18.00;11.13;;;;;;;4.50;68.57;98075.09;5048325;28;20232;-70
2022/01/22 07:21:02;;;;;;;22.70;10.70;;;;;;;4.41;68.26;98074.72;5072600;28;20436;-69
2022/01/22 07:23:55;;;;;;;16.53;11.00;;;;;;;4.75;66.81;98074.44;5072970;28;20503;-70
2022/01/22 07:26:16;;;;;;;20.70;11.53;;;;;;;4.97;66.62;98081.72;5064979;28;20458;-68
2022/01/22 07:28:42;;;;;;;27.43;12.03;;;;;;;4.85;66.22;98078.13;5071450;28;20785;-70
2022/01/22 07:31:08;;;;;;;18.60;11.70;;;;;;;4.90;66.36;98077.84;5071843;28;20225;-70
2022/01/22 07:33:34;;;;;;;27.30;12.27;;;;;;;4.76;66.98;98082.13;5073090;28;20186;-69
2022/01/22 07:36:01;;;;;;;19.33;11.67;;;;;;;4.64;67.39;98084.63;5038494;28;20479;-71
2022/01/22 07:38:26;;;;;;;21.93;12.37;;;;;;;4.81;67.33;98083.59;5058532;28;20182;-70
2022/01/22 07:40:52;;;;;;;19.57;11.60;;;;;;;4.38;68.69;98082.69;5068740;28;20507;-71
2022/01/22 07:43:18;;;;;;;19.63;12.73;;;;;;;4.62;67.84;98087.34;5067798;28;20198;-70
2022/01/22 07:45:43;;;;;;;22.03;12.53;;;;;;;4.80;67.47;98081.94;5073428;28;20661;-72
2022/01/22 07:48:09;;;;;;;19.13;12.20;;;;;;;4.12;69.42;98089.41;5070949;28;20202;-71
2022/01/22 07:50:35;;;;;;;18.13;11.20;;;;;;;4.53;68.58;98080.13;5070730;28;20229;-70
2022/01/22 07:53:02;;;;;;;19.87;12.00;;;;;;;4.39;68.39;98086.13;5063992;28;20190;-71
2022/01/22 07:55:28;;;;;;;20.87;12.30;;;;;;;4.72;67.81;98091.03;5038793;28;20179;-71
2022/01/22 07:57:54;;;;;;;25.10;12.73;;;;;;;4.69;67.55;98101.59;5054447;28;20444;-69
2022/01/22 08:00:20;;;;;;;19.33;11.87;;;;;;;4.72;67.67;98098.84;5071478;28;20539;-70
2022/01/22 08:02:45;;;;;;;19.33;12.50;;;;;;;4.71;67.87;98097.16;5064717;28;20190;-71
2022/01/22 08:05:11;;;;;;;19.30;12.93;;;;;;;4.84;67.84;98096.41;5070433;28;20444;-70
2022/01/22 08:07:39;;;;;;;20.60;12.37;;;;;;;4.98;67.05;98091.19;5062800;28;20197;-70
2022/01/22 08:10:08;;;;;;;21.47;13.40;;;;;;;4.97;67.37;98086.94;5069899;28;20218;-69
2022/01/22 08:12:37;;;;;;;21.53;12.47;;;;;;;4.48;69.35;98089.94;5072168;28;20425;-72
2022/01/22 08:15:08;;;;;;;20.33;13.30;;;;;;;4.21;70.80;98093.25;5071452;28;20998;-71
2022/01/22 08:17:33;;;;;;;19.40;12.07;;;;;;;4.64;69.66;98090.69;5021312;28;20458;-69
2022/01/22 08:19:59;;;;;;;24.17;14.03;;;;;;;4.05;70.96;98099.31;5076525;28;20448;-72
2022/01/22 08:22:25;;;;;;;26.30;13.53;;;;;;;4.34;70.17;98098.56;5072835;28;20182;-72
2022/01/22 08:24:53;;;;;;;23.00;13.93;;;;;;;4.51;70.86;98100.97;5071101;28;20235;-71
2022/01/22 08:29:55;;;;;;;24.07;14.00;;;;;;;4.86;69.52;98104.94;5071683;28;20880;-68
2022/01/22 08:37:43;;;;;;;24.07;12.97;;;;;;;4.75;69.64;98101.25;5055239;28;20423;-71
2022/01/22 08:40:09;;;;;;;24.07;12.83;;;;;;;4.74;69.84;98107.38;5071193;28;20448;-72
2022/01/22 08:42:35;;;;;;;27.43;14.30;;;;;;;4.71;69.52;98109.31;5069870;28;20288;-70
2022/01/22 08:45:02;;;;;;;23.20;13.07;;;;;;;4.92;68.94;98109.75;5071257;28;20425;-69
2022/01/22 08:47:27;;;;;;;21.70;12.93;;;;;;;4.80;69.35;98115.69;5071109;28;20465;-70
2022/01/22 08:49:53;;;;;;;22.63;14.00;;;;;;;4.77;69.10;98108.94;5069654;28;20880;-69
2022/01/22 08:52:23;;;;;;;18.53;13.00;;;;;;;5.05;68.17;98120.22;5069374;28;20240;-69
2022/01/22 08:54:49;;;;;;;22.43;12.77;;;;;;;4.76;69.46;98122.84;5071159;28;20271;-71
2022/01/22 08:57:15;;;;;;;25.80;14.03;;;;;;;4.82;68.87;98129.44;5069995;28;20517;-70
2022/01/22 08:59:42;;;;;;;23.17;13.13;;;;;;;4.68;69.81;98125.91;5070806;28;20220;-71
2022/01/22 09:02:07;;;;;;;26.47;14.23;;;;;;;4.56;70.37;98129.25;5063557;28;20222;-71
2022/01/22 09:04:33;;;;;;;25.20;14.17;;;;;;;4.39;71.58;98125.91;5053170;28;20899;-69
2022/01/22 09:06:59;;;;;;;19.53;12.53;;;;;;;4.31;71.60;98133.28;5054708;28;20568;-72
2022/01/22 09:09:26;;;;;;;28.97;14.70;;;;;;;4.52;70.72;98135.56;5070880;28;20515;-71
2022/01/22 09:11:52;;;;;;;22.53;13.63;;;;;;;4.34;71.77;98134.91;5071280;28;20447;-70
2022/01/22 09:14:17;;;;;;;30.47;15.90;;;;;;;4.38;71.84;98147.59;5071038;28;20432;-69
2022/01/22 09:16:45;;;;;;;26.27;14.33;;;;;;;5.02;70.33;98146.41;5065241;28;20794;-71
2022/01/22 09:19:11;;;;;;;25.73;13.93;;;;;;;4.84;69.96;98151.81;5059345;28;20190;-70
2022/01/22 09:21:41;;;;;;;34.03;15.10;;;;;;;5.20;68.92;98147.03;5070742;28;20444;-70
2022/01/22 09:24:08;;;;;;;41.37;17.20;;;;;;;5.16;69.06;98141.19;5066620;28;20432;-71
2022/01/22 09:26:34;;;;;;;25.20;13.50;;;;;;;4.74;70.62;98130.75;5071050;28;20734;-72
2022/01/22 09:29:00;;;;;;;28.27;14.53;;;;;;;4.66;70.22;98130.38;5070665;28;20546;-71
2022/01/22 09:31:30;;;;;;;28.30;14.50;;;;;;;4.73;70.46;98143.81;5069627;28;20218;-72
2022/01/22 09:33:57;;;;;;;22.10;14.40;;;;;;;4.56;71.61;98139.63;5071284;28;20461;-70
2022/01/22 09:36:24;;;;;;;25.10;14.50;;;;;;;5.11;69.92;98145.00;5056771;28;20821;-68
2022/01/22 09:38:50;;;;;;;25.03;14.47;;;;;;;5.22;69.22;98145.19;5061083;28;20432;-70
2022/01/22 09:41:16;;;;;;;27.73;14.20;;;;;;;5.38;68.85;98152.84;5071021;28;20467;-69
2022/01/22 09:43:42;;;;;;;24.17;13.73;;;;;;;5.39;68.58;98151.91;5070579;28;20855;-71
2022/01/22 09:46:08;;;;;;;26.20;14.40;;;;;;;4.98;70.07;98156.16;5069958;28;20460;-70
2022/01/22 09:48:34;;;;;;;28.70;14.93;;;;;;;5.17;69.25;98145.47;5062830;28;20202;-70
2022/01/22 09:50:59;;;;;;;24.13;14.07;;;;;;;5.25;69.28;98150.19;5069432;28;20492;-73
2022/01/22 09:53:25;;;;;;;31.70;14.27;;;;;;;5.41;69.18;98167.44;5070513;28;20223;-72
2022/01/22 09:55:51;;;;;;;29.27;15.00;;;;;;;5.42;69.06;98169.09;5072219;28;20186;-71
2022/01/22 09:58:17;;;;;;;29.67;15.03;;;;;;;5.22;69.12;98171.16;5059814;28;20190;-69
2022/01/22 10:00:43;;;;;;;26.57;14.20;;;;;;;5.43;69.05;98170.75;5064116;28;20247;-71
2022/01/22 10:03:17;;;;;;;20.83;13.90;;;;;;;5.04;70.49;98176.56;5063797;28;20798;-69
2022/01/22 10:05:43;;;;;;;24.40;13.80;;;;;;;5.12;69.27;98168.28;5075277;28;20281;-71
2022/01/22 10:08:31;;;;;;;21.93;13.50;;;;;;;5.29;68.80;98169.88;5057817;28;20527;-69
2022/01/22 10:10:59;;;;;;;23.60;13.30;;;;;;;5.19;69.61;98166.16;5073022;28;20275;-69
2022/01/22 10:13:41;;;;;;;23.80;13.60;;;;;;;5.12;70.10;98177.88;5048683;28;20436;-70
2022/01/22 10:16:21;;;;;;;23.67;14.03;;;;;;;4.91;71.24;98171.28;5073356;28;20446;-71
2022/01/22 10:19:12;;;;;;;24.87;13.43;;;;;;;5.12;69.54;98173.50;5074684;28;20511;-69
2022/01/22 10:21:41;;;;;;;24.67;13.10;;;;;;;4.84;70.71;98184.72;5051856;28;20756;-68
2022/01/22 10:24:31;;;;;;;21.40;13.93;;;;;;;5.23;69.75;98176.25;5074179;28;20429;-70
2022/01/22 10:27:29;;;;;;;19.80;12.93;;;;;;;5.19;69.06;98179.16;5073397;28;20426;-70
2022/01/22 10:30:08;;;;;;;21.20;14.27;;;;;;;5.11;69.76;98174.41;5064991;28;20475;-70
2022/01/22 10:35:23;;;;;;;25.27;13.30;;;;;;;5.36;69.51;98159.91;5054996;28;20565;-68
2022/01/22 10:37:59;;;;;;;24.47;13.67;;;;;;;5.23;69.83;98168.47;5040408;28;20439;-69
2022/01/22 10:40:34;;;;;;;22.40;13.27;;;;;;;5.12;70.21;98163.09;5056104;28;20447;-70
2022/01/22 10:43:35;;;;;;;23.70;14.23;;;;;;;5.15;70.19;98165.50;5072888;28;20435;-73
2022/01/22 10:46:02;;;;;;;25.53;12.90;;;;;;;5.10;69.73;98161.53;5061142;28;20542;-71
2022/01/22 10:48:28;;;;;;;20.33;13.27;;;;;;;5.45;69.59;98148.94;5054408;28;20926;-70
2022/01/22 10:51:05;;;;;;;25.63;14.30;;;;;;;5.26;70.17;98143.22;5051478;28;20467;-69
2022/01/22 10:53:35;;;;;;;30.07;14.37;;;;;;;5.36;69.46;98137.34;5059462;28;20540;-70
2022/01/22 10:56:03;;;;;;;22.30;13.77;;;;;;;5.61;68.72;98147.94;5073928;28;20428;-71
2022/01/22 10:58:31;;;;;;;25.97;13.93;;;;;;;5.57;69.27;98141.28;5066126;28;20445;-73
2022/01/22 11:00:59;;;;;;;21.27;12.37;;;;;;;5.53;69.31;98136.28;5051600;28;20463;-70
2022/01/22 11:03:26;;;;;;;18.00;12.63;;;;;;;5.64;68.92;98134.75;5062740;28;20774;-71
2022/01/22 11:05:52;;;;;;;20.93;12.77;;;;;;;5.86;68.30;98131.59;5041817;28;20434;-70
2022/01/22 11:08:17;;;;;;;21.20;13.77;;;;;;;5.64;68.67;98137.34;5061277;28;20439;-70
2022/01/22 11:10:44;;;;;;;19.30;11.90;;;;;;;5.79;68.12;98135.56;5049717;28;20245;-69
2022/01/22 11:13:10;;;;;;;24.77;13.97;;;;;;;5.59;69.08;98137.66;5071924;28;20653;-70
2022/01/22 11:15:36;;;;;;;21.60;12.43;;;;;;;5.82;68.21;98135.34;5067789;28;20437;-70
2022/01/22 11:18:02;;;;;;;21.43;12.00;;;;;;;5.75;68.63;98136.69;5051232;28;20182;-69
2022/01/22 11:20:30;;;;;;;18.97;12.77;;;;;;;5.70;68.68;98136.97;5057709;28;20832;-72
2022/01/22 11:22:58;;;;;;;19.77;12.60;;;;;;;6.16;68.26;98143.59;5059589;28;20804;-71
2022/01/22 11:25:24;;;;;;;22.60;12.10;;;;;;;5.35;70.49;98132.25;5078451;28;20464;-71
2022/01/22 11:27:50;;;;;;;24.60;13.07;;;;;;;5.66;69.68;98131.16;5064406;28;20443;-70
2022/01/22 11:30:17;;;;;;;16.50;11.70;;;;;;;5.64;70.10;98137.34;5047223;28;20461;-68
2022/01/22 11:32:46;;;;;;;21.00;11.63;;;;;;;5.63;69.74;98139.13;5074170;28;20190;-69
2022/01/22 11:35:12;;;;;;;20.80;12.50;;;;;;;5.96;68.89;98132.66;5048153;28;20424;-69
2022/01/22 11:37:43;;;;;;;18.10;12.93;;;;;;;5.81;68.78;98133.66;5081740;28;20748;-70
2022/01/22 11:40:17;;;;;;;27.23;12.17;;;;;;;6.02;68.11;98125.44;5085913;28;20437;-69
2022/01/22 11:42:59;;;;;;;25.90;12.37;;;;;;;6.17;68.41;98132.25;5080804;28;20502;-70
2022/01/22 11:45:33;;;;;;;20.40;12.47;;;;;;;6.30;67.80;98137.44;5054069;28;20462;-71
2022/01/22 11:48:12;;;;;;;15.60;11.10;;;;;;;6.01;68.11;98131.56;5055258;28;20436;-71
2022/01/22 11:50:38;;;;;;;18.53;10.83;;;;;;;6.13;68.09;98131.59;5072637;28;20495;-69
2022/01/22 11:53:22;;;;;;;15.27;11.10;;;;;;;5.89;68.68;98134.03;5040192;28;20455;-70
2022/01/22 11:56:10;;;;;;;17.87;10.90;;;;;;;6.02;67.62;98135.84;5048351;28;20550;-72
2022/01/22 11:58:57;;;;;;;21.37;11.87;;;;;;;5.97;68.58;98134.34;5059728;28;20554;-70
2022/01/22 12:01:41;;;;;;;19.50;11.30;;;;;;;6.34;67.59;98131.13;5071449;28;20482;-73
2022/01/22 12:04:09;;;;;;;21.57;11.80;;;;;;;6.32;68.21;98129.53;5072415;28;20428;-71
2022/01/22 12:06:36;;;;;;;23.83;11.43;;;;;;;6.41;67.16;98132.34;5029633;28;20497;-72
2022/01/22 12:09:15;;;;;;;15.63;10.20;;;;;;;6.32;67.90;98126.91;5064418;28;20844;-70
2022/01/22 12:14:55;;;;;;;14.63;10.40;;;;;;;6.07;68.68;98123.34;5056344;28;20421;-71
2022/01/22 12:17:46;;;;;;;21.43;11.30;;;;;;;5.93;69.33;98121.63;5072789;28;20425;-69
2022/01/22 12:23:27;;;;;;;15.93;10.50;;;;;;;5.82;69.85;98127.53;5072175;28;20482;-70
2022/01/22 12:25:53;;;;;;;21.30;9.83;;;;;;;5.99;69.82;98123.81;5051765;28;20515;-70
2022/01/22 12:28:39;;;;;;;11.07;9.17;;;;;;;6.15;68.69;98121.09;5070967;28;20453;-70
2022/01/22 12:31:08;;;;;;;14.23;7.90;;;;;;;5.83;69.82;98127.44;5071662;28;20221;-70
2022/01/22 12:33:34;;;;;;;12.50;9.00;;;;;;;6.18;68.94;98126.06;5071707;28;20953;-71
2022/01/22 12:36:00;;;;;;;10.40;7.43;;;;;;;5.75;69.94;98121.88;5070017;28;20461;-69
2022/01/22 12:40:59;;;;;;;10.13;7.10;;;;;;;6.12;68.85;98123.88;5053603;28;20448;-70
2022/01/22 12:43:32;;;;;;;10.03;8.03;;;;;;;6.14;68.13;98129.84;5062689;28;20517;-71
2022/01/22 12:46:00;;;;;;;11.60;6.97;;;;;;;5.99;68.85;98131.63;5071450;28;20481;-70
2022/01/22 12:48:31;;;;;;;8.00;6.47;;;;;;;5.86;69.22;98130.78;5067620;28;20799;-70
2022/01/22 12:51:02;;;;;;;14.30;7.97;;;;;;;5.95;69.42;98131.00;5065968;28;20471;-70
2022/01/22 12:53:27;;;;;;;10.90;7.17;;;;;;;6.04;68.92;98128.78;5054810;28;20795;-70
2022/01/22 12:58:20;;;;;;;8.87;6.60;;;;;;;6.01;69.11;98136.78;5070553;28;20214;-71
2022/01/22 13:00:46;;;;;;;7.80;6.70;;;;;;;5.85;69.09;98140.34;5072030;28;20657;-70
2022/01/22 13:03:15;;;;;;;14.70;8.57;;;;;;;5.75;70.13;98134.91;5064442;28;20437;-71
2022/01/22 13:05:45;;;;;;;9.00;6.53;;;;;;;6.02;68.86;98133.25;5071079;28;20311;-69
2022/01/22 13:08:11;;;;;;;10.00;6.80;;;;;;;5.82;69.31;98130.97;5054886;28;20456;-71
2022/01/22 13:10:43;;;;;;;9.90;6.93;;;;;;;5.67;69.87;98117.19;5071150;28;20488;-71